Time;durP1;ratioP1;P1;durP2;ratioP2;P2;SDS_P1;SDS_P2;PMS_P1;PMS_P2;Temp;Humidity;BMP_temperature;BMP_pressure;BME280_temperature;BME280_humidity;BME280_pressure;Samples;Min_cycle;Max_cycle;Signal;HPM_P1;HPM_P2
2024/01/09 00:01:28;;;;;;;6.57;5.73;;;;;;;;;;4973059;28;20251;-81
2024/01/09 00:03:55;;;;;;;9.07;6.53;;;;;;;;;;4973572;28;20612;-81
2024/01/09 00:06:22;;;;;;;7.17;5.03;;;;;;;;;;4972742;28;20245;-81
2024/01/09 00:08:49;;;;;;;9.67;6.40;;;;;;;;;;4973008;28;20368;-81
2024/01/09 00:11:18;;;;;;;6.10;5.50;;;;;;;;;;4972654;28;20245;-80
2024/01/09 00:13:45;;;;;;;8.20;6.20;;;;;;;;;;4973524;28;20213;-81
2024/01/09 00:16:12;;;;;;;6.93;6.17;;;;;;;;;;4985029;28;20232;-80
2024/01/09 00:18:39;;;;;;;6.73;5.90;;;;;;;;;;4992276;28;20288;-81
2024/01/09 00:21:06;;;;;;;8.83;4.90;;;;;;;;;;4992016;28;20716;-81
2024/01/09 00:23:33;;;;;;;11.27;7.17;;;;;;;;;;4992069;28;20198;-81
2024/01/09 00:26:01;;;;;;;7.90;6.03;;;;;;;;;;4992115;28;20613;-80
2024/01/09 00:28:30;;;;;;;8.97;6.77;;;;;;;;;;4992586;28;20235;-81
2024/01/09 00:30:57;;;;;;;8.87;6.27;;;;;;;;;;4991693;28;20726;-81
2024/01/09 00:33:24;;;;;;;5.80;5.30;;;;;;;;;;4992464;28;20200;-81
2024/01/09 00:35:51;;;;;;;8.87;6.00;;;;;;;;;;4991948;28;20242;-81
2024/01/09 00:38:27;;;;;;;5.47;5.03;;;;;;;;;;4992285;28;20208;-80
2024/01/09 00:40:54;;;;;;;5.97;4.83;;;;;;;;;;4991340;28;20237;-80
2024/01/09 00:43:22;;;;;;;6.00;5.40;;;;;;;;;;4992130;28;20211;-80
2024/01/09 00:45:50;;;;;;;6.07;4.97;;;;;;;;;;4997771;28;20258;-80
2024/01/09 00:48:17;;;;;;;5.53;4.97;;;;;;;;;;5001634;28;20556;-80
2024/01/09 00:50:44;;;;;;;7.47;5.83;;;;;;;;;;5005380;28;20238;-80
2024/01/09 00:53:11;;;;;;;7.47;5.80;;;;;;;;;;4994337;28;20208;-80
2024/01/09 00:55:38;;;;;;;8.50;4.67;;;;;;;;;;4993110;28;20234;-80
2024/01/09 00:58:05;;;;;;;10.10;6.47;;;;;;;;;;5000654;28;20689;-80
2024/01/09 01:00:32;;;;;;;6.53;5.30;;;;;;;;;;5012791;28;20350;-80
2024/01/09 01:03:00;;;;;;;8.13;5.73;;;;;;;;;;5015701;28;20207;-81
2024/01/09 01:05:28;;;;;;;9.23;6.33;;;;;;;;;;5000054;28;20243;-81
2024/01/09 01:07:55;;;;;;;6.83;5.40;;;;;;;;;;5015520;28;20235;-81
2024/01/09 01:10:22;;;;;;;6.13;5.60;;;;;;;;;;5014889;28;20685;-80
2024/01/09 01:12:49;;;;;;;6.70;4.80;;;;;;;;;;5015088;28;20670;-80
2024/01/09 01:15:16;;;;;;;5.87;5.23;;;;;;;;;;5012762;28;20197;-81
2024/01/09 01:17:44;;;;;;;6.80;5.50;;;;;;;;;;4995918;28;20266;-81
2024/01/09 01:20:12;;;;;;;6.77;6.03;;;;;;;;;;4995145;28;20228;-81
2024/01/09 01:22:40;;;;;;;9.23;5.80;;;;;;;;;;4995863;28;20216;-80
2024/01/09 01:25:08;;;;;;;5.97;5.33;;;;;;;;;;4995221;28;20231;-81
2024/01/09 01:27:36;;;;;;;8.53;5.63;;;;;;;;;;4995382;28;20241;-81
2024/01/09 01:30:03;;;;;;;8.60;5.73;;;;;;;;;;4995002;28;20232;-81
2024/01/09 01:32:30;;;;;;;9.43;6.37;;;;;;;;;;4995623;28;20204;-81
2024/01/09 01:34:57;;;;;;;9.07;5.80;;;;;;;;;;4995104;28;20702;-81
2024/01/09 01:37:25;;;;;;;6.20;5.17;;;;;;;;;;4994548;28;20737;-81
2024/01/09 01:39:52;;;;;;;5.53;4.63;;;;;;;;;;4975766;28;20232;-81
2024/01/09 01:42:19;;;;;;;7.43;5.77;;;;;;;;;;5002268;28;20235;-80
2024/01/09 01:44:46;;;;;;;6.63;5.63;;;;;;;;;;5015073;28;20210;-80
2024/01/09 01:47:14;;;;;;;7.43;5.30;;;;;;;;;;5001688;28;20232;-81
2024/01/09 01:49:42;;;;;;;5.93;5.23;;;;;;;;;;4994712;28;20291;-81
2024/01/09 01:52:09;;;;;;;8.60;5.97;;;;;;;;;;5011698;28;20238;-81
2024/01/09 01:54:40;;;;;;;9.73;6.17;;;;;;;;;;5014537;28;20207;-81
2024/01/09 01:57:08;;;;;;;8.57;5.77;;;;;;;;;;5014029;28;20442;-79
2024/01/09 01:59:37;;;;;;;7.07;6.37;;;;;;;;;;5014571;28;20775;-80
2024/01/09 02:02:05;;;;;;;8.33;6.00;;;;;;;;;;5013948;28;20232;-79
2024/01/09 02:04:32;;;;;;;9.40;6.23;;;;;;;;;;5014253;28;20646;-79
2024/01/09 02:07:00;;;;;;;5.73;5.13;;;;;;;;;;5011938;28;20878;-80
2024/01/09 02:09:27;;;;;;;5.80;5.10;;;;;;;;;;5006367;28;20231;-79
2024/01/09 02:11:55;;;;;;;8.03;5.13;;;;;;;;;;4997897;28;20243;-79
2024/01/09 02:14:22;;;;;;;7.40;5.37;;;;;;;;;;4994441;28;20196;-79
2024/01/09 02:16:49;;;;;;;6.23;5.73;;;;;;;;;;4993710;28;20283;-79
2024/01/09 02:19:16;;;;;;;5.97;5.37;;;;;;;;;;4994136;28;20231;-79
2024/01/09 02:21:43;;;;;;;5.97;5.07;;;;;;;;;;4996121;28;20241;-79
2024/01/09 02:24:10;;;;;;;7.57;5.67;;;;;;;;;;4994621;28;20263;-80
2024/01/09 02:26:39;;;;;;;5.90;5.30;;;;;;;;;;5006642;28;20322;-79
2024/01/09 02:29:10;;;;;;;6.20;5.60;;;;;;;;;;5013781;28;20226;-79
2024/01/09 02:31:39;;;;;;;8.10;5.27;;;;;;;;;;5000372;28;20330;-79
2024/01/09 02:34:06;;;;;;;6.63;5.90;;;;;;;;;;4994239;28;20204;-79
2024/01/09 02:36:33;;;;;;;8.97;5.63;;;;;;;;;;4993568;28;20271;-79
2024/01/09 02:39:00;;;;;;;9.27;6.47;;;;;;;;;;4994213;28;20228;-79
2024/01/09 02:41:28;;;;;;;7.53;4.87;;;;;;;;;;4993555;28;20722;-79
2024/01/09 02:43:55;;;;;;;7.10;6.03;;;;;;;;;;4994217;28;20211;-78
2024/01/09 02:46:22;;;;;;;6.93;5.83;;;;;;;;;;4993483;28;20236;-79
2024/01/09 02:48:51;;;;;;;9.03;6.03;;;;;;;;;;4994195;28;20254;-80
2024/01/09 02:51:18;;;;;;;6.13;5.53;;;;;;;;;;5003630;28;20246;-79
2024/01/09 02:53:45;;;;;;;9.00;5.77;;;;;;;;;;5013608;28;20602;-79
2024/01/09 02:56:12;;;;;;;6.70;5.50;;;;;;;;;;5013042;28;20309;-80
2024/01/09 02:58:39;;;;;;;8.40;5.63;;;;;;;;;;5012996;28;20215;-80
2024/01/09 03:01:07;;;;;;;8.47;5.87;;;;;;;;;;5012800;28;20234;-81
2024/01/09 03:03:34;;;;;;;9.33;5.40;;;;;;;;;;5010940;28;20249;-80
2024/01/09 03:06:03;;;;;;;8.00;6.23;;;;;;;;;;4996013;28;20243;-81
2024/01/09 03:08:30;;;;;;;6.03;5.53;;;;;;;;;;4993831;28;20208;-81
2024/01/09 03:10:57;;;;;;;7.67;5.00;;;;;;;;;;5000201;28;20863;-81
2024/01/09 03:13:24;;;;;;;8.07;5.23;;;;;;;;;;5013313;28;20211;-80
2024/01/09 03:15:51;;;;;;;9.23;5.50;;;;;;;;;;5012455;28;20322;-81
2024/01/09 03:18:18;;;;;;;6.40;5.77;;;;;;;;;;5012959;28;20200;-81
2024/01/09 03:20:45;;;;;;;7.57;5.50;;;;;;;;;;5012276;28;20231;-80
2024/01/09 03:23:13;;;;;;;6.10;5.50;;;;;;;;;;5011806;28;20203;-81
2024/01/09 03:25:40;;;;;;;8.23;5.63;;;;;;;;;;5012284;28;20231;-80
2024/01/09 03:28:07;;;;;;;9.40;6.60;;;;;;;;;;5013087;28;20218;-80
2024/01/09 03:30:35;;;;;;;11.73;5.57;;;;;;;;;;5007705;28;20240;-80
2024/01/09 03:33:02;;;;;;;7.33;6.00;;;;;;;;;;4993465;28;20212;-80
2024/01/09 03:35:29;;;;;;;6.47;4.97;;;;;;;;;;4992589;28;20234;-80
2024/01/09 03:37:56;;;;;;;7.60;6.10;;;;;;;;;;4992797;28;20266;-80
2024/01/09 03:40:24;;;;;;;6.73;4.80;;;;;;;;;;4992360;28;20318;-80
2024/01/09 03:42:51;;;;;;;5.57;4.90;;;;;;;;;;4993025;28;20200;-80
2024/01/09 03:45:18;;;;;;;5.03;4.63;;;;;;;;;;4992429;28;20217;-81
2024/01/09 03:47:45;;;;;;;5.53;5.13;;;;;;;;;;4992866;28;20622;-81
2024/01/09 03:50:12;;;;;;;10.87;6.10;;;;;;;;;;4992499;28;20227;-81
2024/01/09 03:52:39;;;;;;;6.87;6.00;;;;;;;;;;4992874;28;20227;-80
2024/01/09 03:55:07;;;;;;;5.87;5.33;;;;;;;;;;4992514;28;20200;-82
2024/01/09 03:57:35;;;;;;;6.10;5.50;;;;;;;;;;4992541;28;20200;-81
2024/01/09 04:00:02;;;;;;;6.47;5.67;;;;;;;;;;4992080;28;20315;-83
2024/01/09 04:02:29;;;;;;;8.40;5.47;;;;;;;;;;4992636;28;20252;-81
2024/01/09 04:04:56;;;;;;;6.30;5.17;;;;;;;;;;4992977;28;20231;-81
2024/01/09 04:07:23;;;;;;;6.10;5.43;;;;;;;;;;4992052;28;20239;-81
2024/01/09 04:09:50;;;;;;;7.77;5.37;;;;;;;;;;4992550;28;20307;-80
2024/01/09 04:12:17;;;;;;;6.77;5.43;;;;;;;;;;4991996;28;20239;-81
2024/01/09 04:14:46;;;;;;;8.20;5.73;;;;;;;;;;4992451;28;20199;-81
2024/01/09 04:17:13;;;;;;;7.00;6.30;;;;;;;;;;4991735;28;20236;-81
2024/01/09 04:19:40;;;;;;;7.57;5.50;;;;;;;;;;4992403;28;20244;-80
2024/01/09 04:22:07;;;;;;;8.03;5.83;;;;;;;;;;4991811;28;20645;-80
2024/01/09 04:24:35;;;;;;;8.63;5.77;;;;;;;;;;4992088;28;20695;-80
2024/01/09 04:27:03;;;;;;;7.33;6.00;;;;;;;;;;4991675;28;20270;-81
2024/01/09 04:29:30;;;;;;;5.20;4.30;;;;;;;;;;4992235;28;20290;-80
2024/01/09 04:31:59;;;;;;;7.30;5.37;;;;;;;;;;4993354;28;20276;-81
2024/01/09 04:34:26;;;;;;;7.20;5.43;;;;;;;;;;4993779;28;20204;-81
2024/01/09 04:36:53;;;;;;;6.67;5.80;;;;;;;;;;4993461;28;20236;-80
2024/01/09 04:39:20;;;;;;;5.33;4.73;;;;;;;;;;4991971;28;20227;-81
2024/01/09 04:41:47;;;;;;;6.30;4.97;;;;;;;;;;4991623;28;20742;-81
2024/01/09 04:44:14;;;;;;;7.47;6.20;;;;;;;;;;4992526;28;20220;-81
2024/01/09 04:46:41;;;;;;;6.93;5.77;;;;;;;;;;4991400;28;20254;-82
2024/01/09 04:49:09;;;;;;;8.03;6.57;;;;;;;;;;4991827;28;20718;-81
2024/01/09 04:51:36;;;;;;;8.13;5.60;;;;;;;;;;4991302;28;20653;-81
2024/01/09 04:54:03;;;;;;;6.90;5.57;;;;;;;;;;4992041;28;20196;-81
2024/01/09 04:56:30;;;;;;;6.23;5.43;;;;;;;;;;4991108;28;20232;-81
2024/01/09 04:58:57;;;;;;;8.37;6.43;;;;;;;;;;4991655;28;20228;-80
2024/01/09 05:01:24;;;;;;;9.67;6.40;;;;;;;;;;4991572;28;20718;-81
2024/01/09 05:03:53;;;;;;;7.37;5.90;;;;;;;;;;4992083;28;20204;-81
2024/01/09 05:06:22;;;;;;;7.53;5.40;;;;;;;;;;4991531;28;20243;-81
2024/01/09 05:08:49;;;;;;;7.23;5.70;;;;;;;;;;4992173;28;20204;-81
2024/01/09 05:11:16;;;;;;;5.97;5.43;;;;;;;;;;4991382;28;20316;-81
2024/01/09 05:13:43;;;;;;;7.87;6.03;;;;;;;;;;4991854;28;20615;-81
2024/01/09 05:16:09;;;;;;;6.07;5.03;;;;;;;;;;4991478;28;20259;-80
2024/01/09 05:18:36;;;;;;;7.70;5.73;;;;;;;;;;4991787;28;20711;-80
2024/01/09 05:21:03;;;;;;;7.83;5.43;;;;;;;;;;4991169;28;20236;-80
2024/01/09 05:23:31;;;;;;;7.53;6.07;;;;;;;;;;4991765;28;20216;-80
2024/01/09 05:25:58;;;;;;;6.80;5.57;;;;;;;;;;4994184;28;20240;-80
2024/01/09 05:28:26;;;;;;;8.07;5.80;;;;;;;;;;4991968;28;20207;-80
2024/01/09 05:30:53;;;;;;;6.20;5.60;;;;;;;;;;4991170;28;20239;-80
2024/01/09 05:33:20;;;;;;;8.03;5.40;;;;;;;;;;4991836;28;20311;-80
2024/01/09 05:35:47;;;;;;;6.97;5.73;;;;;;;;;;4991089;28;20302;-79
2024/01/09 05:38:14;;;;;;;6.17;5.57;;;;;;;;;;4986386;28;20254;-80
2024/01/09 05:40:42;;;;;;;5.77;5.23;;;;;;;;;;4991111;28;20250;-80
2024/01/09 05:43:09;;;;;;;12.40;6.40;;;;;;;;;;4991708;28;20220;-80
2024/01/09 05:45:36;;;;;;;6.70;5.50;;;;;;;;;;4991174;28;20310;-80
2024/01/09 05:48:03;;;;;;;7.17;6.07;;;;;;;;;;4995248;28;20300;-80
2024/01/09 05:50:30;;;;;;;9.20;6.50;;;;;;;;;;4994630;28;20239;-80
2024/01/09 05:52:57;;;;;;;7.27;4.83;;;;;;;;;;4995230;28;20216;-80
2024/01/09 05:55:24;;;;;;;6.13;5.50;;;;;;;;;;4994333;28;20255;-80
2024/01/09 05:57:53;;;;;;;7.60;6.83;;;;;;;;;;4994832;28;20234;-80
2024/01/09 06:00:20;;;;;;;9.63;6.07;;;;;;;;;;4994376;28;20228;-78
2024/01/09 06:02:47;;;;;;;7.90;5.17;;;;;;;;;;4994719;28;20200;-79
2024/01/09 06:05:14;;;;;;;8.97;5.40;;;;;;;;;;4994224;28;20223;-79
2024/01/09 06:07:41;;;;;;;6.13;5.53;;;;;;;;;;4994412;28;20205;-78
2024/01/09 06:10:08;;;;;;;5.53;5.03;;;;;;;;;;4994036;28;20229;-79
2024/01/09 06:12:35;;;;;;;7.30;5.77;;;;;;;;;;4994250;28;20769;-78
2024/01/09 06:15:04;;;;;;;7.53;5.47;;;;;;;;;;4994787;28;20211;-78
2024/01/09 06:17:31;;;;;;;8.63;5.13;;;;;;;;;;4993934;28;20228;-79
2024/01/09 06:20:00;;;;;;;9.03;5.47;;;;;;;;;;4994275;28;20228;-79
2024/01/09 06:22:27;;;;;;;9.13;7.07;;;;;;;;;;5012368;28;20207;-79
2024/01/09 06:24:54;;;;;;;6.37;5.00;;;;;;;;;;5014261;28;20231;-79
2024/01/09 06:27:21;;;;;;;7.13;5.43;;;;;;;;;;5013138;28;20227;-79
2024/01/09 06:29:48;;;;;;;5.30;4.80;;;;;;;;;;5013669;28;20238;-79
2024/01/09 06:32:17;;;;;;;7.17;5.77;;;;;;;;;;5013316;28;20227;-79
2024/01/09 06:34:44;;;;;;;5.80;5.13;;;;;;;;;;5013338;28;20625;-77
2024/01/09 06:37:11;;;;;;;5.57;5.07;;;;;;;;;;5012932;28;20235;-77
2024/01/09 06:39:38;;;;;;;5.77;4.87;;;;;;;;;;5026958;28;20234;-78
2024/01/09 06:42:05;;;;;;;5.67;5.07;;;;;;;;;;5013463;28;20231;-78
2024/01/09 06:44:32;;;;;;;9.37;5.97;;;;;;;;;;5013772;28;20207;-78
2024/01/09 06:46:59;;;;;;;6.23;5.43;;;;;;;;;;5012929;28;20243;-78
2024/01/09 06:49:28;;;;;;;7.13;5.33;;;;;;;;;;5013712;28;20238;-78
2024/01/09 06:51:55;;;;;;;5.40;4.90;;;;;;;;;;5012940;28;20651;-78
2024/01/09 06:54:22;;;;;;;6.67;5.30;;;;;;;;;;5013533;28;20196;-78
2024/01/09 06:56:49;;;;;;;7.00;5.07;;;;;;;;;;5012433;28;20242;-79
2024/01/09 06:59:16;;;;;;;10.53;6.60;;;;;;;;;;5013086;28;20235;-77
2024/01/09 07:01:43;;;;;;;5.80;4.57;;;;;;;;;;5012234;28;20266;-76
2024/01/09 07:04:10;;;;;;;7.37;5.20;;;;;;;;;;5012862;28;20204;-77
2024/01/09 07:06:38;;;;;;;6.60;5.93;;;;;;;;;;5012205;28;20231;-77
2024/01/09 07:09:05;;;;;;;6.70;5.30;;;;;;;;;;5013007;28;20310;-77
2024/01/09 07:11:33;;;;;;;5.77;5.27;;;;;;;;;;5003829;28;20235;-77
2024/01/09 07:14:00;;;;;;;7.87;6.07;;;;;;;;;;5004791;28;20210;-77
2024/01/09 07:16:27;;;;;;;7.10;5.80;;;;;;;;;;5005864;28;20255;-78
2024/01/09 07:18:54;;;;;;;6.67;5.30;;;;;;;;;;5010927;28;20285;-78
2024/01/09 07:21:21;;;;;;;6.37;5.80;;;;;;;;;;5010424;28;20380;-78
2024/01/09 07:23:50;;;;;;;7.23;5.90;;;;;;;;;;4995980;28;20674;-78
2024/01/09 07:26:17;;;;;;;9.63;6.20;;;;;;;;;;5006299;28;20254;-78
2024/01/09 07:28:44;;;;;;;8.77;5.57;;;;;;;;;;5002584;28;20567;-80
2024/01/09 07:31:11;;;;;;;5.83;5.20;;;;;;;;;;5011857;28;20242;-77
2024/01/09 07:33:39;;;;;;;6.83;5.43;;;;;;;;;;5012305;28;20597;-78
2024/01/09 07:36:06;;;;;;;6.87;5.30;;;;;;;;;;4999212;28;20236;-77
2024/01/09 07:38:33;;;;;;;6.13;5.43;;;;;;;;;;4998116;28;20231;-78
2024/01/09 07:41:02;;;;;;;6.70;5.23;;;;;;;;;;5009548;28;20235;-78
2024/01/09 07:43:29;;;;;;;7.73;5.53;;;;;;;;;;5012273;28;20231;-78
2024/01/09 07:45:56;;;;;;;11.20;6.07;;;;;;;;;;5019732;28;20238;-78
2024/01/09 07:48:23;;;;;;;8.80;6.20;;;;;;;;;;5032190;28;20265;-78
2024/01/09 07:50:50;;;;;;;6.20;5.70;;;;;;;;;;5031673;28;20249;-78
2024/01/09 07:53:17;;;;;;;5.60;4.80;;;;;;;;;;5031980;28;20227;-78
2024/01/09 07:55:44;;;;;;;9.97;5.83;;;;;;;;;;5031297;28;20234;-78
2024/01/09 07:58:13;;;;;;;11.23;6.20;;;;;;;;;;5031968;28;20207;-78
2024/01/09 08:00:40;;;;;;;6.27;5.67;;;;;;;;;;5031471;28;20242;-78
2024/01/09 08:03:07;;;;;;;6.50;5.30;;;;;;;;;;5032097;28;20203;-77
2024/01/09 08:05:34;;;;;;;7.30;5.93;;;;;;;;;;5030081;28;20223;-78
2024/01/09 08:08:01;;;;;;;5.83;5.30;;;;;;;;;;5031181;28;20676;-78
2024/01/09 08:10:28;;;;;;;8.47;5.20;;;;;;;;;;5030948;28;20379;-78
2024/01/09 08:12:55;;;;;;;7.33;5.43;;;;;;;;;;5031961;28;20238;-79
2024/01/09 08:15:24;;;;;;;5.60;4.53;;;;;;;;;;5031331;28;20260;-78
2024/01/09 08:17:51;;;;;;;7.87;5.67;;;;;;;;;;5031566;28;20207;-80
2024/01/09 08:20:18;;;;;;;8.03;5.73;;;;;;;;;;5031258;28;20254;-79
2024/01/09 08:22:45;;;;;;;5.80;5.30;;;;;;;;;;5032052;28;20229;-79
2024/01/09 08:25:12;;;;;;;7.73;5.03;;;;;;;;;;5031130;28;20673;-78
2024/01/09 08:27:39;;;;;;;6.90;5.37;;;;;;;;;;5031119;28;20210;-79
2024/01/09 08:30:10;;;;;;;5.03;4.63;;;;;;;;;;5016020;28;20231;-80
2024/01/09 08:32:40;;;;;;;5.10;4.70;;;;;;;;;;5008432;28;20270;-78
2024/01/09 08:35:07;;;;;;;6.17;4.60;;;;;;;;;;5000092;28;20235;-80
2024/01/09 08:37:34;;;;;;;6.97;6.20;;;;;;;;;;5011161;28;20287;-78
2024/01/09 08:40:01;;;;;;;5.20;4.70;;;;;;;;;;5011749;28;20233;-79
2024/01/09 08:42:28;;;;;;;5.57;5.00;;;;;;;;;;4994530;28;20223;-78
2024/01/09 08:44:55;;;;;;;6.70;5.73;;;;;;;;;;5004642;28;20208;-78
2024/01/09 08:47:22;;;;;;;7.53;5.53;;;;;;;;;;5006225;28;20701;-78
2024/01/09 08:49:53;;;;;;;9.80;5.83;;;;;;;;;;5011689;28;20232;-78
2024/01/09 08:52:24;;;;;;;7.33;5.53;;;;;;;;;;5011009;28;20241;-79
2024/01/09 08:54:52;;;;;;;7.97;5.67;;;;;;;;;;5011349;28;20652;-79
2024/01/09 08:57:19;;;;;;;7.87;5.37;;;;;;;;;;5010570;28;20250;-79
2024/01/09 08:59:46;;;;;;;7.50;4.27;;;;;;;;;;5011430;28;20223;-81
2024/01/09 09:02:13;;;;;;;6.43;5.13;;;;;;;;;;4993561;28;20235;-80
2024/01/09 09:04:41;;;;;;;7.30;4.67;;;;;;;;;;4991603;28;20687;-81
2024/01/09 09:07:09;;;;;;;9.33;6.00;;;;;;;;;;4999848;28;20239;-80
2024/01/09 09:09:36;;;;;;;6.03;4.93;;;;;;;;;;5000560;28;20267;-80
2024/01/09 09:12:03;;;;;;;6.20;4.97;;;;;;;;;;5007500;28;20240;-80
2024/01/09 09:14:30;;;;;;;10.60;4.93;;;;;;;;;;5011317;28;20207;-80
2024/01/09 09:16:57;;;;;;;7.63;5.80;;;;;;;;;;5010818;28;20231;-79
2024/01/09 09:19:24;;;;;;;7.40;4.83;;;;;;;;;;5011540;28;20230;-80
2024/01/09 09:21:53;;;;;;;6.60;4.60;;;;;;;;;;5015311;28;20232;-80
2024/01/09 09:24:21;;;;;;;6.67;5.57;;;;;;;;;;5015550;28;20265;-80
2024/01/09 09:26:48;;;;;;;6.27;5.40;;;;;;;;;;5014937;28;20231;-81
2024/01/09 09:29:15;;;;;;;6.40;5.80;;;;;;;;;;4997778;28;20228;-81
2024/01/09 09:31:42;;;;;;;4.47;4.03;;;;;;;;;;4999627;28;20230;-80
2024/01/09 09:34:09;;;;;;;7.63;4.97;;;;;;;;;;5014686;28;20196;-79
2024/01/09 09:36:36;;;;;;;7.53;5.33;;;;;;;;;;5001947;28;20639;-81
2024/01/09 09:39:03;;;;;;;6.00;5.27;;;;;;;;;;4994943;28;20228;-78
2024/01/09 09:41:34;;;;;;;4.40;4.07;;;;;;;;;;4994888;28;20243;-79
2024/01/09 09:44:03;;;;;;;4.83;4.37;;;;;;;;;;4995051;28;20638;-78
2024/01/09 09:46:31;;;;;;;4.60;4.20;;;;;;;;;;4991717;28;20314;-80
2024/01/09 09:48:59;;;;;;;5.83;4.93;;;;;;;;;;4995038;28;20286;-78
2024/01/09 09:51:27;;;;;;;5.47;4.97;;;;;;;;;;5000123;28;20641;-79
2024/01/09 09:53:55;;;;;;;5.97;5.40;;;;;;;;;;5013575;28;20231;-79
2024/01/09 09:56:22;;;;;;;6.10;4.70;;;;;;;;;;5002106;28;20266;-79
2024/01/09 09:58:51;;;;;;;5.00;4.60;;;;;;;;;;5004682;28;20291;-77
2024/01/09 10:01:18;;;;;;;5.10;4.27;;;;;;;;;;5004425;28;20231;-79
2024/01/09 10:03:50;;;;;;;5.40;5.00;;;;;;;;;;5005433;28;20215;-80
2024/01/09 10:06:19;;;;;;;4.67;4.37;;;;;;;;;;5005292;28;20762;-80
2024/01/09 10:08:49;;;;;;;5.23;4.73;;;;;;;;;;5003547;28;20242;-80
2024/01/09 10:11:16;;;;;;;4.33;4.03;;;;;;;;;;5006722;28;20310;-80
2024/01/09 10:13:44;;;;;;;4.70;4.30;;;;;;;;;;5004880;28;20217;-80
2024/01/09 10:16:12;;;;;;;5.87;5.33;;;;;;;;;;5001877;28;20307;-79
2024/01/09 10:18:39;;;;;;;5.33;4.80;;;;;;;;;;4994619;28;20208;-80
2024/01/09 10:21:07;;;;;;;8.77;5.00;;;;;;;;;;5012194;28;20282;-79
2024/01/09 10:23:38;;;;;;;6.77;5.10;;;;;;;;;;5011158;28;20196;-79
2024/01/09 10:26:09;;;;;;;4.93;4.10;;;;;;;;;;5006866;28;20250;-80
2024/01/09 10:28:37;;;;;;;4.73;4.33;;;;;;;;;;5007434;28;20207;-81
2024/01/09 10:31:07;;;;;;;3.10;2.90;;;;;;;;;;5013006;28;20736;-81
2024/01/09 10:33:39;;;;;;;6.83;4.97;;;;;;;;;;5013158;28;20227;-82
2024/01/09 10:36:06;;;;;;;4.67;4.17;;;;;;;;;;5013275;28;20250;-81
2024/01/09 10:38:33;;;;;;;7.03;4.27;;;;;;;;;;5014058;28;20209;-81
2024/01/09 10:41:14;;;;;;;3.67;3.47;;;;;;;;;;5029539;28;20243;-81
2024/01/09 10:43:42;;;;;;;5.57;5.07;;;;;;;;;;5031228;28;20293;-81
2024/01/09 10:46:09;;;;;;;4.97;4.57;;;;;;;;;;5031266;28;20236;-81
2024/01/09 10:48:38;;;;;;;5.93;3.77;;;;;;;;;;5023723;28;20204;-81
2024/01/09 10:51:06;;;;;;;4.23;3.83;;;;;;;;;;5013045;28;20239;-80
2024/01/09 10:53:33;;;;;;;4.60;3.90;;;;;;;;;;5013312;28;20250;-80
2024/01/09 10:56:01;;;;;;;4.33;3.93;;;;;;;;;;5012878;28;20583;-82
2024/01/09 10:58:29;;;;;;;4.63;4.33;;;;;;;;;;5013120;28;20216;-81
2024/01/09 11:00:56;;;;;;;5.03;4.53;;;;;;;;;;5012724;28;20244;-81
2024/01/09 11:03:23;;;;;;;4.23;4.03;;;;;;;;;;5013397;28;20215;-82
2024/01/09 11:05:53;;;;;;;8.90;4.70;;;;;;;;;;5007427;28;20766;-82
2024/01/09 11:08:21;;;;;;;3.97;3.67;;;;;;;;;;5013125;28;20205;-81
2024/01/09 11:10:49;;;;;;;6.13;3.97;;;;;;;;;;5013153;28;20655;-84
2024/01/09 11:13:16;;;;;;;4.47;4.07;;;;;;;;;;5013449;28;20271;-83
2024/01/09 11:15:46;;;;;;;3.70;3.37;;;;;;;;;;5012801;28;20230;-81
2024/01/09 11:18:15;;;;;;;3.97;3.67;;;;;;;;;;5013362;28;20209;-82
2024/01/09 11:20:42;;;;;;;3.60;3.23;;;;;;;;;;5012369;28;20261;-81
2024/01/09 11:23:12;;;;;;;3.87;3.57;;;;;;;;;;5012873;28;20822;-81
2024/01/09 11:25:39;;;;;;;5.93;4.03;;;;;;;;;;5005269;28;20239;-81
2024/01/09 11:28:07;;;;;;;5.07;4.53;;;;;;;;;;5012504;28;20214;-82
2024/01/09 11:30:34;;;;;;;5.60;4.03;;;;;;;;;;5012076;28;20665;-81
2024/01/09 11:33:27;;;;;;;4.30;3.90;;;;;;;;;;5008837;28;20277;-82
2024/01/09 11:35:55;;;;;;;4.03;3.63;;;;;;;;;;5005112;28;20249;-81
2024/01/09 11:38:23;;;;;;;5.30;3.40;;;;;;;;;;5016092;28;20240;-81
2024/01/09 11:40:50;;;;;;;5.23;3.93;;;;;;;;;;5009955;28;20245;-81
2024/01/09 11:43:17;;;;;;;4.53;3.60;;;;;;;;;;5010994;28;20257;-81
2024/01/09 11:45:46;;;;;;;4.47;4.07;;;;;;;;;;5011119;28;20237;-80
2024/01/09 11:48:13;;;;;;;5.53;4.10;;;;;;;;;;5011400;28;20225;-80
2024/01/09 11:50:41;;;;;;;3.70;3.37;;;;;;;;;;5010649;28;20320;-81
2024/01/09 11:53:08;;;;;;;5.70;4.70;;;;;;;;;;5010281;28;20281;-81
2024/01/09 11:55:36;;;;;;;4.67;4.37;;;;;;;;;;5006103;28;20239;-81
2024/01/09 11:58:03;;;;;;;4.10;3.80;;;;;;;;;;4985179;28;20205;-81
2024/01/09 12:00:30;;;;;;;5.20;4.77;;;;;;;;;;4989451;28;20660;-81
2024/01/09 12:02:57;;;;;;;3.03;2.83;;;;;;;;;;4992225;28;20208;-81
2024/01/09 12:05:24;;;;;;;4.13;3.40;;;;;;;;;;4990625;28;20286;-81
2024/01/09 12:07:51;;;;;;;3.83;3.03;;;;;;;;;;4986882;28;20216;-82
2024/01/09 12:10:18;;;;;;;4.00;3.70;;;;;;;;;;4981935;28;20235;-81
2024/01/09 12:12:47;;;;;;;3.73;3.47;;;;;;;;;;4991442;28;20232;-82
2024/01/09 12:15:19;;;;;;;4.30;3.90;;;;;;;;;;4991207;28;20223;-82
2024/01/09 12:17:57;;;;;;;3.60;3.40;;;;;;;;;;4983740;28;20297;-82
2024/01/09 12:20:24;;;;;;;3.80;3.53;;;;;;;;;;4990638;28;20657;-82
2024/01/09 12:22:51;;;;;;;4.67;3.90;;;;;;;;;;4991271;28;20243;-81
2024/01/09 12:25:18;;;;;;;5.07;4.00;;;;;;;;;;4991183;28;20216;-85
2024/01/09 12:27:47;;;;;;;4.17;3.50;;;;;;;;;;4990890;28;20215;-82
2024/01/09 12:30:14;;;;;;;4.63;3.67;;;;;;;;;;4985852;28;20235;-79
2024/01/09 12:32:41;;;;;;;3.60;3.30;;;;;;;;;;4993264;28;20210;-81
2024/01/09 12:35:09;;;;;;;3.53;3.23;;;;;;;;;;4991564;28;20213;-81
2024/01/09 12:37:36;;;;;;;4.00;3.33;;;;;;;;;;4990114;28;20215;-80
2024/01/09 12:40:09;;;;;;;3.97;3.67;;;;;;;;;;4989880;28;20415;-81
2024/01/09 12:42:36;;;;;;;3.57;3.07;;;;;;;;;;4983458;28;20624;-80
2024/01/09 12:45:05;;;;;;;3.37;3.07;;;;;;;;;;4990036;28;20582;-82
2024/01/09 12:47:32;;;;;;;5.60;3.53;;;;;;;;;;4990076;28;20718;-80
2024/01/09 12:49:59;;;;;;;3.73;3.37;;;;;;;;;;4990693;28;20240;-81
2024/01/09 12:52:26;;;;;;;4.97;4.10;;;;;;;;;;4982253;28;20237;-82
2024/01/09 12:54:54;;;;;;;4.43;3.53;;;;;;;;;;4991848;28;20237;-82
2024/01/09 12:57:21;;;;;;;3.83;3.20;;;;;;;;;;4994503;28;20240;-82
2024/01/09 12:59:49;;;;;;;6.63;3.53;;;;;;;;;;4994486;28;20373;-83
2024/01/09 13:02:17;;;;;;;2.90;2.73;;;;;;;;;;4993778;28;20251;-81
2024/01/09 13:04:46;;;;;;;3.57;3.30;;;;;;;;;;4994250;28;20235;-82
2024/01/09 13:07:16;;;;;;;4.87;3.23;;;;;;;;;;4994282;28;20251;-82
2024/01/09 13:09:43;;;;;;;5.17;3.87;;;;;;;;;;4994113;28;20347;-81
2024/01/09 13:12:10;;;;;;;4.87;3.70;;;;;;;;;;4993591;28;20778;-82
2024/01/09 13:14:38;;;;;;;3.30;3.10;;;;;;;;;;4994210;28;20227;-83
2024/01/09 13:17:05;;;;;;;4.77;4.00;;;;;;;;;;4992960;28;20267;-82
2024/01/09 13:19:32;;;;;;;5.87;3.77;;;;;;;;;;4992916;28;20823;-82
2024/01/09 13:21:59;;;;;;;4.07;3.43;;;;;;;;;;4992310;28;20246;-82
2024/01/09 13:24:26;;;;;;;3.47;3.27;;;;;;;;;;4993575;28;20267;-82
2024/01/09 13:26:53;;;;;;;3.67;3.37;;;;;;;;;;4992801;28;20878;-82
2024/01/09 13:29:24;;;;;;;4.13;3.43;;;;;;;;;;4990858;28;20224;-82
2024/01/09 13:31:51;;;;;;;3.80;3.27;;;;;;;;;;4992807;28;20323;-82
2024/01/09 13:34:18;;;;;;;3.10;2.77;;;;;;;;;;4994255;28;20231;-82
2024/01/09 13:36:48;;;;;;;3.40;3.10;;;;;;;;;;4985183;28;20237;-82
2024/01/09 13:39:17;;;;;;;3.37;3.07;;;;;;;;;;4985369;28;20647;-82
2024/01/09 13:41:45;;;;;;;3.47;3.17;;;;;;;;;;4992161;28;20322;-82
2024/01/09 13:44:12;;;;;;;4.33;3.50;;;;;;;;;;4985732;28;20232;-82
2024/01/09 13:46:39;;;;;;;3.67;3.37;;;;;;;;;;4993366;28;20605;-82
2024/01/09 13:49:07;;;;;;;3.70;3.37;;;;;;;;;;4993746;28;20229;-82
2024/01/09 13:51:34;;;;;;;4.00;3.30;;;;;;;;;;4991534;28;20242;-82
2024/01/09 13:54:03;;;;;;;5.03;3.67;;;;;;;;;;4978930;28;20277;-81
2024/01/09 13:56:31;;;;;;;7.37;3.67;;;;;;;;;;4992184;28;20772;-82
2024/01/09 13:58:58;;;;;;;5.87;3.70;;;;;;;;;;4987475;28;20320;-82
2024/01/09 14:01:28;;;;;;;5.70;3.73;;;;;;;;;;4991404;28;20259;-82
2024/01/09 14:03:55;;;;;;;3.80;3.50;;;;;;;;;;4985950;28;20206;-82
2024/01/09 14:06:22;;;;;;;3.60;3.30;;;;;;;;;;4992092;28;20238;-82
2024/01/09 14:08:49;;;;;;;7.97;4.17;;;;;;;;;;4993510;28;20217;-82
2024/01/09 14:11:18;;;;;;;3.10;2.80;;;;;;;;;;4992873;28;20230;-83
2024/01/09 14:13:45;;;;;;;4.13;3.67;;;;;;;;;;4993657;28;20239;-82
2024/01/09 14:16:12;;;;;;;4.80;3.33;;;;;;;;;;4992679;28;20245;-82
2024/01/09 14:18:39;;;;;;;3.37;3.10;;;;;;;;;;4992404;28;20206;-82
2024/01/09 14:21:06;;;;;;;3.83;3.40;;;;;;;;;;4993231;28;20238;-81
2024/01/09 14:23:33;;;;;;;5.33;3.20;;;;;;;;;;4993108;28;20213;-81
2024/01/09 14:26:00;;;;;;;3.17;2.90;;;;;;;;;;4992772;28;20258;-82
2024/01/09 14:28:29;;;;;;;5.90;3.23;;;;;;;;;;4993508;28;20211;-81
2024/01/09 14:30:56;;;;;;;3.97;3.43;;;;;;;;;;4991917;28;20241;-81
2024/01/09 14:33:23;;;;;;;4.23;3.47;;;;;;;;;;4992910;28;20868;-81
2024/01/09 14:35:50;;;;;;;2.90;2.63;;;;;;;;;;4992458;28;20290;-82
2024/01/09 14:38:18;;;;;;;4.37;3.50;;;;;;;;;;4991584;28;20807;-82
2024/01/09 14:40:45;;;;;;;4.47;3.53;;;;;;;;;;4990628;28;20243;-81
2024/01/09 14:43:12;;;;;;;3.40;3.10;;;;;;;;;;4988028;28;20204;-81
2024/01/09 14:45:41;;;;;;;2.97;2.77;;;;;;;;;;4991407;28;20246;-81